Terminal Aerodrome Forecast
Issued by NWS Austin/San Antonio, TX

Home | Current Version | Previous Version | Text Only | Print | Product List | Glossary On
Versions: 1 2 3 4 5 6 7 8 9 10 11 12 13 14 15 16 17 18 19 20 21 22
000
FTUS44 KEWX 162300
TAFSAT
TAF
KSAT 162322Z 1700/1806 14010KT P6SM SCT050 BKN120 BKN250
     FM170700 12005KT P6SM BKN025
     FM171400 15005KT P6SM -SHRA BKN020 BKN040
     FM171800 16010KT P6SM BKN040 PROB30 1718/1724 5SM TSRA BKN040CB
     FM180300 13007KT P6SM BKN018 OVC040=

USA.gov is the U.S. government's official web portal to all federal, state and local government web resources and services.